Terminal Aerodrome Forecast
Issued by NWS

Home | Current Version | Previous Version | Text Only | Print | Product List | Glossary On
Versions: 1 2 3 4 5 6 7 8 9 10 11 12 13 14
000
FTUS45 KTFX 020500 RRA
TAFBZN
TAF
KBZN 020542Z 0206/0306 VRB04KT P6SM BKN150
     FM021800 28007KT P6SM BKN100
     FM022100 30007KT P6SM VCSH SCT030 BKN060
     FM030000 35014G20KT 4SM -SN SCT010 BKN025
      TEMPO 0300/0304 1 1/2SM -SN BLSN BKN010=

USA.gov is the U.S. government's official web portal to all federal, state and local government web resources and services.